Marquette, MI

10:03 AM EDT on August 26, 2016 (GMT -0400)
South Marquette | | Change Station

Elev 843 ft 46.53 °N, 87.42 °W | Updated 2 minutes ago

Scattered Clouds
Scattered Clouds
63.7 °F
Feels Like 63.7 °F
N
0.0
Wind Variable Wind from SW
Gusts 0.0 mph

Today
High -- | Low -- °F
--% Chance of Precip.
Yesterday
High -- | Low -- °F
Precip. -- in
Pressure 30.11 in
Visibility 10.0 miles
Clouds Scattered Clouds 5500 ft
Dew Point 59 °F
Humidity 84%
Rainfall 0.00 in
Snow Depth Not available.
7:02 AM 8:38 PM
Waning Crescent, 34% visible
METAR KSAW 261348Z 30006KT 10SM SCT055 17/13 A3011
Pressure 30.11 in
Visibility 10.0 miles
Clouds Scattered Clouds 5500 ft
Dew Point 59 °F
Humidity 84%
Rainfall 0.00 in
Snow Depth Not available.
7:02 AM 8:38 PM
Waning Crescent, 34% visible
METAR KSAW 261348Z 30006KT 10SM SCT055 17/13 A3011

10-Day Weather Forecast

Almanac

Astronomy

Aug. 26, 2016 Rise Set
Actual Time
Civil Twilight
Nautical Twilight
Astronomical Twilight
Moon
Length of Visible Light
Length of Day
Tomorrow will be .
, % of the Moon is Illuminated

Today's Extremes

State Highs State Lows

Community

WunderPhotos

Upload Photos

1,935,084 photos uploaded!

WunderBlog® & News

Nearby

Air Quality

  Air Quality AQ Index Pollutant
Not available.

Snow Depth

Station Depth Elevation

Earthquake Activity

City Distance Mag. Time & Date
Minimum magnitude displayed is 2.5.

Coastal Water Temperatures

Place Temperature

Stations

Nearby Weather Stations

Station Location Temp. Windchill Dew Point Humidity Wind Precip. Elev Updated Type
                   

Watches & Warnings

There are currently no watches in effect.